X  CloseMetar Aviation Weather Data     EKYT Aalborg

Temperature

13°C Temperature

11°C Dewpoint

88% Humidity



Wind

29 KM/H

18 MPH

 8 M/S

16 KTS



110°
East South
East
Current Conditions

Mostly Scattered Clouds Mostly Scattered Clouds
Pressure 1015.92 (hPa) - 30 (in)
Visibility 6.2 (mi) - 10 (km)
Airport
Airport-code EKYT

Location Aalborg 55 (km)

Metar:
EKYT 230220Z AUTO 11016KT 9999 SCT016/// BKN019/// 13/11 Q1016

Time: 23-09-2019 04:20